Terminal Aerodrome Forecast
Issued by NWS

Home | Current Version | Previous Version | Graphics & Text | Print | Product List | Glossary On
Versions: 1 2 3 4 5 6 7 8 9 10 11 12 13 14 15
000
FTUS42 KMHX 220943 AAA
TAFISO
TAF AMD
KISO 220943Z 2210/2306 36010KT P6SM VCSH SCT005 OVC040
      TEMPO 2210/2212 BKN005
     FM221200 01014KT P6SM SCT015 OVC045
     FM221400 01014G24KT P6SM SCT050
     FM222300 03005KT P6SM SKC
      AMD LTD TO CLD VIS AND WIND=

USA.gov is the U.S. government's official web portal to all federal, state and local government web resources and services.